Time;durP1;ratioP1;P1;durP2;ratioP2;P2;SDS_P1;SDS_P2;PMS_P1;PMS_P2;Temp;Humidity;BMP_temperature;BMP_pressure;BME280_temperature;BME280_humidity;BME280_pressure;Samples;Min_cycle;Max_cycle;Signal;HPM_P1;HPM_P2
2023/04/12 00:01:51;;;;;;;33.47;15.32;;;;;;;5.23;100.00;98507.31;4900881;28;20049;-55
2023/04/12 00:04:27;;;;;;;34.67;14.48;;;;;;;5.25;100.00;98490.00;4912848;28;20461;-56
2023/04/12 00:06:59;;;;;;;37.65;16.00;;;;;;;5.33;100.00;98472.53;4902569;28;20055;-55
2023/04/12 00:09:35;;;;;;;25.65;12.55;;;;;;;5.45;100.00;98492.97;4896576;28;20133;-55
2023/04/12 00:12:07;;;;;;;33.58;16.02;;;;;;;5.55;100.00;98458.16;4911341;28;20476;-56
2023/04/12 00:14:40;;;;;;;32.80;15.20;;;;;;;5.49;100.00;98439.31;4920893;28;20055;-57
2023/04/12 00:17:12;;;;;;;34.60;16.65;;;;;;;5.71;100.00;98455.19;4931501;28;20070;-53
2023/04/12 00:19:47;;;;;;;46.58;21.80;;;;;;;6.14;100.00;98490.38;4931421;28;20064;-55
2023/04/12 00:22:19;;;;;;;58.85;28.55;;;;;;;6.36;100.00;98499.28;4905020;28;20048;-55
2023/04/12 00:24:55;;;;;;;50.45;23.33;;;;;;;6.59;100.00;98477.03;4915643;28;20048;-55
2023/04/12 00:27:28;;;;;;;35.70;15.73;;;;;;;6.85;100.00;98481.47;4905352;28;20091;-56
2023/04/12 00:30:02;;;;;;;43.03;18.67;;;;;;;7.15;100.00;98473.66;4916143;28;20076;-56
2023/04/12 00:32:33;;;;;;;33.15;15.57;;;;;;;7.56;100.00;98459.31;4917845;28;20760;-56
2023/04/12 00:35:03;;;;;;;30.63;13.82;;;;;;;7.70;100.00;98441.50;4930575;28;20117;-57
2023/04/12 00:37:35;;;;;;;25.25;12.95;;;;;;;8.06;100.00;98464.53;4930805;28;20492;-55
2023/04/12 00:40:07;;;;;;;47.53;18.30;;;;;;;8.31;100.00;98432.44;4929646;28;20044;-56
2023/04/12 00:42:38;;;;;;;38.15;15.50;;;;;;;8.68;100.00;98441.53;4920985;28;20546;-56
2023/04/12 00:45:11;;;;;;;37.20;12.20;;;;;;;8.86;100.00;98393.94;4931236;28;20881;-56
2023/04/12 00:47:43;;;;;;;31.75;12.75;;;;;;;9.44;100.00;98402.03;4924253;28;20075;-54
2023/04/12 00:50:14;;;;;;;33.88;10.88;;;;;;;9.75;100.00;98390.31;4885864;28;20064;-57
2023/04/12 00:52:45;;;;;;;31.92;12.70;;;;;;;10.00;99.92;98386.63;4880180;28;20060;-56
2023/04/12 00:55:16;;;;;;;30.77;11.07;;;;;;;10.04;98.65;98378.59;4882494;28;20069;-56
2023/04/12 00:57:47;;;;;;;21.30;9.48;;;;;;;10.03;97.26;98378.66;4899673;28;20585;-57
2023/04/12 01:00:20;;;;;;;24.95;9.02;;;;;;;9.88;95.29;98428.00;4896773;28;20051;-57
2023/04/12 01:02:51;;;;;;;27.60;10.38;;;;;;;9.50;94.69;98417.41;4896495;28;20052;-55
2023/04/12 01:05:24;;;;;;;23.20;8.40;;;;;;;9.13;94.05;98432.84;4905824;28;20050;-57
2023/04/12 01:08:06;;;;;;;19.38;7.80;;;;;;;8.77;94.84;98446.41;4899351;28;20057;-57
2023/04/12 01:10:47;;;;;;;25.15;7.95;;;;;;;8.50;96.86;98453.50;4888000;28;20050;-55
2023/04/12 01:13:27;;;;;;;23.33;8.43;;;;;;;8.33;99.48;98446.25;4888596;28;20058;-53
2023/04/12 01:16:07;;;;;;;18.95;8.38;;;;;;;8.23;100.00;98447.50;4877540;28;20167;-55
2023/04/12 01:18:44;;;;;;;17.58;6.65;;;;;;;8.12;100.00;98430.53;4898561;28;20238;-56
2023/04/12 01:21:19;;;;;;;14.57;6.45;;;;;;;8.29;100.00;98444.69;4906034;28;20049;-56
2023/04/12 01:24:02;;;;;;;20.80;6.38;;;;;;;8.33;100.00;98441.06;4906251;28;20055;-55
2023/04/12 01:26:40;;;;;;;41.55;8.40;;;;;;;8.17;100.00;98418.19;4918042;28;20041;-56
2023/04/12 01:29:15;;;;;;;38.65;8.73;;;;;;;8.35;100.00;98449.66;4906164;28;20059;-56
2023/04/12 01:31:51;;;;;;;41.83;8.55;;;;;;;8.40;99.99;98451.22;4898817;28;20053;-54
2023/04/12 01:34:23;;;;;;;38.42;9.88;;;;;;;8.48;99.93;98424.91;4887965;28;20053;-54
2023/04/12 01:36:56;;;;;;;42.75;8.88;;;;;;;8.60;97.47;98434.84;4898441;28;20044;-56
2023/04/12 01:39:26;;;;;;;51.35;9.88;;;;;;;8.46;96.62;98431.91;4915418;28;20061;-57
2023/04/12 01:41:57;;;;;;;51.53;10.35;;;;;;;8.63;94.31;98439.94;4908750;28;20062;-55
2023/04/12 01:44:29;;;;;;;69.30;12.38;;;;;;;8.68;94.53;98442.38;4906255;28;20049;-56
2023/04/12 01:47:00;;;;;;;47.00;10.15;;;;;;;8.76;93.90;98413.44;4905436;28;20567;-56
2023/04/12 01:49:42;;;;;;;66.00;11.43;;;;;;;9.13;96.13;98404.19;4889985;28;20056;-58
2023/04/12 01:52:17;;;;;;;59.63;12.00;;;;;;;9.12;92.69;98420.75;4895920;28;20055;-59
2023/04/12 01:54:51;;;;;;;55.35;11.55;;;;;;;9.16;93.16;98397.13;4897697;28;20056;-59
2023/04/12 01:57:28;;;;;;;49.60;10.88;;;;;;;9.05;92.55;98374.06;4907301;28;20064;-57
2023/04/12 02:00:10;;;;;;;52.97;11.75;;;;;;;9.67;93.61;98408.03;4896911;28;20059;-57
2023/04/12 02:02:52;;;;;;;57.30;10.40;;;;;;;9.93;93.67;98402.56;4897985;28;20049;-57
2023/04/12 02:05:24;;;;;;;55.55;10.82;;;;;;;10.11;94.22;98402.69;4890307;28;20110;-58
2023/04/12 02:07:55;;;;;;;55.67;12.30;;;;;;;10.00;91.34;98378.81;4891213;28;20170;-58
2023/04/12 02:10:31;;;;;;;55.25;10.43;;;;;;;10.17;90.42;98399.78;4899481;28;20049;-59
2023/04/12 02:13:03;;;;;;;57.70;10.48;;;;;;;10.24;88.94;98398.59;4905636;28;20074;-58
2023/04/12 02:15:37;;;;;;;57.17;11.18;;;;;;;10.41;87.76;98404.84;4904773;28;20145;-59
2023/04/12 02:18:12;;;;;;;55.33;10.18;;;;;;;10.33;85.75;98406.06;4882669;28;20056;-59
2023/04/12 02:20:43;;;;;;;57.40;10.13;;;;;;;9.97;84.20;98410.25;4889338;28;20144;-59
2023/04/12 02:23:15;;;;;;;53.97;10.43;;;;;;;9.64;85.32;98397.75;4890297;28;20048;-60
2023/04/12 02:25:47;;;;;;;59.25;10.10;;;;;;;9.73;87.29;98371.25;4888465;28;20080;-60
2023/04/12 02:28:19;;;;;;;49.03;9.40;;;;;;;9.86;84.75;98393.31;4890413;28;20084;-59
2023/04/12 02:30:52;;;;;;;50.38;9.10;;;;;;;9.82;82.65;98381.31;4889984;28;20049;-60
2023/04/12 02:33:27;;;;;;;51.75;9.25;;;;;;;9.93;82.00;98399.97;4890058;28;20141;-58
2023/04/12 02:35:58;;;;;;;43.38;9.77;;;;;;;10.03;82.63;98389.09;4881649;28;20059;-57
2023/04/12 02:38:29;;;;;;;51.55;10.13;;;;;;;9.96;82.19;98393.75;4890533;28;20248;-60
2023/04/12 02:41:01;;;;;;;42.95;7.78;;;;;;;10.15;82.27;98388.56;4906978;28;20076;-60
2023/04/12 02:43:34;;;;;;;41.75;8.88;;;;;;;10.23;80.58;98402.09;4907704;28;20124;-61
2023/04/12 02:46:08;;;;;;;52.83;8.07;;;;;;;9.92;80.17;98382.59;4890607;28;20049;-60
2023/04/12 02:48:39;;;;;;;38.08;7.63;;;;;;;9.81;79.26;98400.47;4896197;28;20057;-59
2023/04/12 02:51:11;;;;;;;36.97;6.57;;;;;;;9.64;77.92;98397.75;4904297;28;20077;-60
2023/04/12 02:53:43;;;;;;;39.08;7.15;;;;;;;9.38;79.33;98412.69;4894610;28;20060;-60
2023/04/12 02:56:17;;;;;;;37.10;7.35;;;;;;;9.27;79.41;98420.13;4902078;28;20052;-58
2023/04/12 02:58:49;;;;;;;33.25;7.43;;;;;;;9.16;79.63;98419.69;4895254;28;20051;-60
2023/04/12 03:01:22;;;;;;;35.67;7.30;;;;;;;9.12;75.97;98432.00;4906180;28;20446;-58
2023/04/12 03:03:55;;;;;;;36.92;6.40;;;;;;;8.95;72.50;98430.06;4905616;28;20052;-60
2023/04/12 03:06:28;;;;;;;29.35;5.90;;;;;;;8.80;72.42;98441.06;4903834;28;20066;-59
2023/04/12 03:09:00;;;;;;;33.63;6.55;;;;;;;8.75;73.23;98448.22;4908413;28;20056;-59
2023/04/12 03:11:34;;;;;;;32.05;6.00;;;;;;;8.69;73.32;98438.03;4909201;28;20048;-60
2023/04/12 03:14:09;;;;;;;23.02;4.78;;;;;;;8.94;72.04;98438.78;4898166;28;20489;-60
2023/04/12 03:16:42;;;;;;;29.80;5.03;;;;;;;9.28;71.36;98424.41;4908941;28;20052;-60
2023/04/12 03:19:13;;;;;;;24.00;4.45;;;;;;;9.63;69.25;98427.31;4908420;28;20052;-60
2023/04/12 03:21:45;;;;;;;27.30;4.57;;;;;;;9.66;66.71;98427.19;4908926;28;20063;-59
2023/04/12 03:24:16;;;;;;;22.25;4.80;;;;;;;9.47;65.66;98443.59;4906825;28;20049;-61
2023/04/12 03:26:48;;;;;;;22.75;4.80;;;;;;;9.22;64.74;98453.34;4909273;28;20267;-60
2023/04/12 03:29:20;;;;;;;25.20;4.43;;;;;;;8.96;66.25;98457.81;4908327;28;20059;-58
2023/04/12 03:31:54;;;;;;;21.15;3.90;;;;;;;8.67;65.30;98465.88;4907806;28;20049;-60
2023/04/12 03:34:27;;;;;;;17.83;4.05;;;;;;;8.64;66.26;98467.69;4908324;28;20048;-59
2023/04/12 03:36:58;;;;;;;25.10;4.10;;;;;;;8.76;65.45;98460.31;4898223;28;20051;-58
2023/04/12 03:39:30;;;;;;;32.22;3.85;;;;;;;8.68;64.63;98472.78;4907847;28;20052;-60
2023/04/12 03:42:02;;;;;;;30.80;4.22;;;;;;;8.79;65.47;98481.06;4905763;28;20064;-60
2023/04/12 03:44:33;;;;;;;30.30;4.60;;;;;;;8.81;63.58;98476.63;4908727;28;20109;-58
2023/04/12 03:47:06;;;;;;;33.53;4.63;;;;;;;8.78;64.69;98466.31;4906227;28;20052;-59
2023/04/12 03:49:38;;;;;;;25.85;4.95;;;;;;;8.76;63.13;98475.94;4898773;28;20128;-59
2023/04/12 03:52:10;;;;;;;23.80;3.92;;;;;;;8.66;60.40;98469.38;4907848;28;20065;-59
2023/04/12 03:54:42;;;;;;;27.60;4.85;;;;;;;8.50;61.59;98459.53;4906820;28;20048;-58
2023/04/12 03:57:15;;;;;;;29.73;4.35;;;;;;;8.39;62.18;98452.13;4907737;28;20048;-58
2023/04/12 03:59:46;;;;;;;39.17;5.47;;;;;;;8.17;60.00;98457.22;4907715;28;20053;-57
2023/04/12 04:02:20;;;;;;;36.38;5.35;;;;;;;8.03;60.86;98449.03;4910717;28;21011;-59
2023/04/12 04:04:52;;;;;;;42.88;5.53;;;;;;;8.02;60.37;98449.13;4906294;28;20110;-59
2023/04/12 04:07:24;;;;;;;49.10;5.03;;;;;;;8.33;61.59;98446.25;4906836;28;20058;-59
2023/04/12 04:09:56;;;;;;;38.10;6.22;;;;;;;8.53;59.70;98442.97;4907327;28;20494;-59
2023/04/12 04:12:30;;;;;;;47.65;6.15;;;;;;;8.37;58.59;98447.84;4899850;28;20131;-59
2023/04/12 04:15:01;;;;;;;49.53;6.10;;;;;;;8.33;56.64;98447.09;4890922;28;20157;-59
2023/04/12 04:17:35;;;;;;;39.28;5.28;;;;;;;8.35;58.61;98454.88;4892261;28;20105;-58
2023/04/12 04:20:08;;;;;;;55.20;6.18;;;;;;;8.41;57.57;98439.03;4887398;28;20058;-59
2023/04/12 04:22:41;;;;;;;57.40;5.65;;;;;;;8.51;56.29;98440.44;4894252;28;20151;-59
2023/04/12 04:25:13;;;;;;;37.13;6.40;;;;;;;8.71;57.83;98420.59;4910824;28;20048;-60
2023/04/12 04:27:45;;;;;;;38.90;6.13;;;;;;;8.93;56.31;98457.91;4910057;28;20147;-58
2023/04/12 04:30:17;;;;;;;40.95;6.00;;;;;;;8.74;50.14;98451.75;4909203;28;20045;-58
2023/04/12 04:32:50;;;;;;;61.20;5.15;;;;;;;8.51;51.75;98432.63;4911209;28;20158;-58
2023/04/12 04:35:22;;;;;;;45.15;6.00;;;;;;;8.84;52.55;98453.06;4910675;28;20083;-59
2023/04/12 04:37:54;;;;;;;50.65;5.40;;;;;;;8.77;50.81;98469.84;4910673;28;20052;-59
2023/04/12 04:40:26;;;;;;;49.85;5.70;;;;;;;8.86;53.61;98456.44;4910233;28;20055;-58
2023/04/12 04:42:58;;;;;;;45.97;5.45;;;;;;;8.99;51.25;98460.31;4903313;28;20083;-58
2023/04/12 04:45:29;;;;;;;60.13;6.75;;;;;;;8.95;49.00;98461.31;4910228;28;20040;-58
2023/04/12 04:48:02;;;;;;;42.10;6.07;;;;;;;8.69;48.47;98438.03;4910715;28;20056;-58
2023/04/12 04:50:35;;;;;;;45.13;5.85;;;;;;;8.69;49.02;98474.50;4910088;28;20074;-60
2023/04/12 04:53:06;;;;;;;47.83;6.20;;;;;;;8.46;49.16;98470.97;4907673;28;20659;-58
2023/04/12 04:55:38;;;;;;;46.42;6.25;;;;;;;8.25;48.60;98474.31;4912557;28;20204;-59
2023/04/12 04:58:13;;;;;;;35.65;5.88;;;;;;;8.08;49.43;98493.94;4909477;28;20056;-59
2023/04/12 05:00:45;;;;;;;45.70;5.75;;;;;;;7.87;51.07;98499.91;4909941;28;20757;-59
2023/04/12 05:03:18;;;;;;;49.03;5.75;;;;;;;7.52;51.50;98499.31;4905162;28;20057;-58
2023/04/12 05:05:50;;;;;;;60.25;6.50;;;;;;;7.38;52.92;98511.88;4909748;28;20055;-59
2023/04/12 05:08:21;;;;;;;38.17;5.40;;;;;;;7.22;53.88;98491.59;4909589;28;20060;-58
2023/04/12 05:10:53;;;;;;;62.78;6.13;;;;;;;7.16;53.46;98504.75;4909273;28;20072;-58
2023/04/12 05:13:25;;;;;;;50.92;6.85;;;;;;;7.42;52.75;98500.50;4908367;28;20049;-59
2023/04/12 05:15:56;;;;;;;55.47;6.85;;;;;;;7.52;49.11;98496.72;4907058;28;20154;-57
2023/04/12 05:18:33;;;;;;;58.47;6.45;;;;;;;7.40;49.03;98500.53;4910107;28;20058;-58
2023/04/12 05:21:05;;;;;;;62.55;6.28;;;;;;;7.28;49.00;98501.78;4907865;28;20495;-59
2023/04/12 05:23:38;;;;;;;52.85;6.40;;;;;;;7.12;49.44;98510.94;4908347;28;20049;-60
2023/04/12 05:26:09;;;;;;;60.50;7.80;;;;;;;7.10;49.90;98508.38;4909027;28;20048;-60
2023/04/12 05:28:41;;;;;;;62.72;7.35;;;;;;;7.08;51.70;98515.38;4906305;28;20086;-59
2023/04/12 05:31:13;;;;;;;46.85;6.35;;;;;;;7.05;50.84;98514.63;4907279;28;20724;-59
2023/04/12 05:33:48;;;;;;;68.78;7.57;;;;;;;6.91;50.72;98534.06;4907758;28;20140;-59
2023/04/12 05:36:22;;;;;;;55.75;8.05;;;;;;;6.74;51.67;98541.50;4895662;28;20050;-59
2023/04/12 05:38:52;;;;;;;52.75;7.38;;;;;;;6.37;52.25;98537.31;4907341;28;20056;-59
2023/04/12 05:41:23;;;;;;;66.05;8.00;;;;;;;6.17;54.14;98549.97;4908598;28;20049;-59
2023/04/12 05:43:54;;;;;;;56.53;6.72;;;;;;;6.00;54.06;98546.06;4909050;28;20547;-59
2023/04/12 05:46:25;;;;;;;68.47;7.38;;;;;;;5.89;53.96;98568.78;4909063;28;20052;-59
2023/04/12 05:48:57;;;;;;;68.53;7.40;;;;;;;5.76;54.65;98580.31;4908528;28;20052;-60
2023/04/12 05:51:28;;;;;;;62.67;6.93;;;;;;;5.56;54.74;98581.63;4898891;28;20060;-58
2023/04/12 05:54:09;;;;;;;60.05;6.82;;;;;;;5.42;55.64;98601.84;4898863;28;20067;-59
2023/04/12 05:56:40;;;;;;;60.35;7.05;;;;;;;5.24;55.93;98581.50;4908961;28;20174;-59
2023/04/12 05:59:11;;;;;;;61.00;7.32;;;;;;;5.33;56.36;98596.84;4908927;28;20072;-60
2023/04/12 06:01:43;;;;;;;60.70;7.47;;;;;;;5.20;57.20;98591.09;4908353;28;20063;-59
2023/04/12 06:04:16;;;;;;;57.60;6.70;;;;;;;5.37;55.90;98616.63;4908328;28;20052;-58
2023/04/12 06:06:46;;;;;;;50.03;7.10;;;;;;;5.24;56.30;98599.63;4904101;28;20061;-58
2023/04/12 06:09:17;;;;;;;50.63;8.02;;;;;;;4.99;56.41;98618.25;4909352;28;20057;-59
2023/04/12 06:11:47;;;;;;;49.00;7.90;;;;;;;4.93;56.83;98627.00;4908195;28;20564;-59
2023/04/12 06:14:18;;;;;;;45.83;6.43;;;;;;;4.93;57.08;98615.81;4908938;28;20052;-59
2023/04/12 06:16:48;;;;;;;61.30;6.63;;;;;;;4.83;56.51;98632.41;4908758;28;20374;-59
2023/04/12 06:19:21;;;;;;;57.78;6.80;;;;;;;4.74;56.85;98621.34;4908505;28;20048;-59
2023/04/12 06:21:52;;;;;;;54.97;6.75;;;;;;;4.66;56.67;98619.78;4908997;28;20052;-59
2023/04/12 06:24:23;;;;;;;55.85;6.93;;;;;;;4.48;57.60;98631.31;4908744;28;20325;-58
2023/04/12 06:26:54;;;;;;;47.42;6.55;;;;;;;4.33;57.88;98625.53;4908492;28;20067;-58
2023/04/12 06:29:25;;;;;;;52.13;6.45;;;;;;;4.15;58.66;98602.59;4909025;28;20060;-59
2023/04/12 06:31:55;;;;;;;59.67;7.97;;;;;;;4.27;58.43;98622.22;4908381;28;20067;-59
2023/04/12 06:34:28;;;;;;;43.17;5.32;;;;;;;4.27;58.62;98620.47;4905568;28;20490;-59
2023/04/12 06:36:58;;;;;;;49.05;6.15;;;;;;;4.28;58.43;98619.59;4908650;28;20052;-58
2023/04/12 06:39:29;;;;;;;59.92;7.63;;;;;;;3.83;59.49;98544.53;4907832;28;20052;-59
2023/04/12 06:42:00;;;;;;;47.20;6.35;;;;;;;4.28;60.18;98614.41;4908735;28;20082;-58
2023/04/12 06:44:32;;;;;;;57.00;7.25;;;;;;;4.18;60.72;98597.34;4909233;28;20048;-59
2023/04/12 06:47:02;;;;;;;62.60;7.88;;;;;;;4.20;60.41;98626.63;4906654;28;20056;-60
2023/04/12 06:49:35;;;;;;;64.35;7.78;;;;;;;4.09;61.00;98613.88;4906714;28;20139;-59
2023/04/12 06:52:05;;;;;;;49.78;6.72;;;;;;;3.98;61.14;98610.63;4908090;28;20271;-58
2023/04/12 06:54:38;;;;;;;67.63;7.60;;;;;;;3.89;61.22;98621.09;4906494;28;20060;-59
2023/04/12 06:57:11;;;;;;;50.67;8.77;;;;;;;3.89;61.29;98632.31;4908246;28;20082;-59
2023/04/12 06:59:41;;;;;;;72.82;7.55;;;;;;;3.82;61.85;98629.81;4907866;28;20053;-59
2023/04/12 07:02:12;;;;;;;47.50;6.95;;;;;;;3.38;61.86;98567.63;4908474;28;20053;-58
2023/04/12 07:04:44;;;;;;;64.85;8.63;;;;;;;3.75;62.52;98649.72;4909061;28;20045;-58
2023/04/12 07:07:14;;;;;;;53.85;7.53;;;;;;;3.70;62.51;98641.19;4907264;28;20054;-59
2023/04/12 07:09:51;;;;;;;66.10;7.35;;;;;;;3.53;62.71;98625.09;4907202;28;20053;-58
2023/04/12 07:12:22;;;;;;;68.95;8.70;;;;;;;3.79;62.84;98656.53;4897123;28;20726;-58
2023/04/12 07:14:52;;;;;;;52.13;8.38;;;;;;;3.79;62.36;98672.03;4907173;28;20071;-59
2023/04/12 07:17:25;;;;;;;51.65;7.38;;;;;;;3.77;62.54;98658.31;4908964;28;20057;-58
2023/04/12 07:19:58;;;;;;;75.63;8.13;;;;;;;3.66;63.20;98649.84;4906693;28;20053;-59
2023/04/12 07:22:28;;;;;;;71.90;7.75;;;;;;;3.79;63.41;98674.63;4907607;28;20052;-58
2023/04/12 07:24:59;;;;;;;59.45;7.20;;;;;;;3.79;62.47;98677.22;4908172;28;20140;-59
2023/04/12 07:27:32;;;;;;;66.68;8.70;;;;;;;3.74;62.91;98668.66;4907412;28;20049;-59
2023/04/12 07:30:03;;;;;;;61.38;8.65;;;;;;;3.57;62.17;98644.81;4907595;28;20048;-59
2023/04/12 07:32:34;;;;;;;65.38;8.23;;;;;;;3.54;62.21;98640.53;4907983;28;20155;-59
2023/04/12 07:35:07;;;;;;;60.95;8.38;;;;;;;3.79;63.08;98686.69;4907247;28;20072;-59
2023/04/12 07:37:39;;;;;;;63.88;7.63;;;;;;;3.40;62.42;98638.16;4899024;28;20061;-59
2023/04/12 07:40:10;;;;;;;57.20;7.90;;;;;;;3.78;62.14;98696.19;4907759;28;20056;-59
2023/04/12 07:42:40;;;;;;;62.53;9.48;;;;;;;3.62;62.27;98668.84;4907977;28;20064;-58
2023/04/12 07:45:11;;;;;;;67.03;8.35;;;;;;;3.84;62.63;98695.22;4907361;28;20052;-59
2023/04/12 07:47:42;;;;;;;69.28;8.77;;;;;;;3.87;62.11;98705.56;4908185;28;20056;-59
2023/04/12 07:50:14;;;;;;;67.60;9.93;;;;;;;3.81;62.54;98703.88;4909053;28;20161;-59
2023/04/12 07:52:45;;;;;;;67.03;8.57;;;;;;;3.74;62.73;98698.81;4911231;28;20052;-59
2023/04/12 07:55:15;;;;;;;79.40;9.48;;;;;;;3.85;62.52;98713.31;4911329;28;20549;-61
2023/04/12 07:57:49;;;;;;;62.65;8.63;;;;;;;3.80;62.82;98720.28;4910209;28;20455;-59
2023/04/12 08:00:20;;;;;;;78.97;8.73;;;;;;;3.85;62.75;98718.47;4911292;28;20048;-58
2023/04/12 08:02:51;;;;;;;58.65;7.15;;;;;;;3.85;62.26;98733.13;4910489;28;20052;-59
2023/04/12 08:05:23;;;;;;;52.97;7.57;;;;;;;3.84;61.71;98727.13;4911016;28;20552;-59
2023/04/12 08:07:54;;;;;;;49.83;9.30;;;;;;;3.85;61.17;98723.66;4911413;28;20067;-59
2023/04/12 08:10:26;;;;;;;67.53;9.07;;;;;;;3.43;61.22;98669.09;4911016;28;20070;-59
2023/04/12 08:12:57;;;;;;;66.85;9.90;;;;;;;3.74;61.16;98715.16;4906406;28;20058;-60
2023/04/12 08:15:27;;;;;;;54.92;8.45;;;;;;;3.84;61.02;98747.78;4913247;28;20072;-59
2023/04/12 08:17:58;;;;;;;75.07;9.13;;;;;;;3.79;61.30;98739.22;4910751;28;20056;-60
2023/04/12 08:20:31;;;;;;;59.03;8.73;;;;;;;3.87;61.33;98758.06;4912065;28;20125;-59
2023/04/12 08:23:02;;;;;;;61.65;8.32;;;;;;;3.87;61.09;98755.50;4909593;28;20056;-60
2023/04/12 08:25:32;;;;;;;65.18;8.10;;;;;;;3.88;60.88;98757.19;4910406;28;20075;-62
2023/04/12 08:28:03;;;;;;;69.63;9.05;;;;;;;3.88;60.52;98764.94;4910422;28;20258;-60
2023/04/12 08:30:34;;;;;;;63.22;8.88;;;;;;;3.75;60.72;98752.22;4909813;28;20620;-60
2023/04/12 08:33:05;;;;;;;57.00;8.30;;;;;;;3.77;60.64;98756.50;4910043;28;20811;-59
2023/04/12 08:35:38;;;;;;;73.65;9.13;;;;;;;3.80;60.47;98777.13;4910420;28;20050;-58
2023/04/12 08:38:09;;;;;;;76.60;8.27;;;;;;;3.75;60.39;98773.72;4909526;28;20052;-61
2023/04/12 08:40:42;;;;;;;66.00;9.00;;;;;;;3.62;60.24;98756.66;4910091;28;20063;-59
2023/04/12 08:43:16;;;;;;;73.95;9.88;;;;;;;3.43;60.48;98725.06;4907647;28;20098;-59
2023/04/12 08:45:47;;;;;;;71.68;8.70;;;;;;;3.74;60.89;98781.50;4899470;28;20068;-59
2023/04/12 08:48:18;;;;;;;64.63;8.40;;;;;;;3.76;60.67;98790.09;4910556;28;20058;-60
2023/04/12 08:50:51;;;;;;;67.47;8.45;;;;;;;3.68;60.79;98818.59;4918741;28;20044;-60
2023/04/12 08:53:22;;;;;;;62.83;8.80;;;;;;;3.70;61.08;98803.94;4913472;28;20060;-59
2023/04/12 08:55:53;;;;;;;68.25;8.73;;;;;;;3.71;60.49;98805.63;4909687;28;20139;-60
2023/04/12 08:58:24;;;;;;;76.63;9.55;;;;;;;3.68;61.07;98810.84;4909752;28;20052;-60
2023/04/12 09:00:55;;;;;;;73.28;8.88;;;;;;;3.66;60.44;98815.16;4909073;28;20056;-60
2023/04/12 09:03:28;;;;;;;88.75;10.10;;;;;;;3.65;60.72;98819.50;4909571;28;20090;-61
2023/04/12 09:06:06;;;;;;;82.80;10.80;;;;;;;3.59;61.28;98804.03;4899429;28;20490;-60
2023/04/12 09:08:37;;;;;;;60.83;7.57;;;;;;;3.51;61.45;98810.19;4903394;28;20059;-59
2023/04/12 09:11:25;;;;;;;62.35;7.82;;;;;;;3.41;60.88;98810.28;4909470;28;20835;-60
2023/04/12 09:13:58;;;;;;;58.80;8.38;;;;;;;3.26;61.42;98789.78;4894474;28;20195;-59
2023/04/12 09:16:40;;;;;;;60.92;9.13;;;;;;;3.08;61.59;98770.19;4909898;28;20114;-60
2023/04/12 09:19:11;;;;;;;68.43;9.02;;;;;;;3.33;61.99;98822.41;4899050;28;20098;-59
2023/04/12 09:21:56;;;;;;;63.42;8.35;;;;;;;3.15;62.33;98807.13;4909280;28;20056;-60
2023/04/12 09:24:27;;;;;;;75.25;9.05;;;;;;;3.24;62.45;98820.81;4894063;28;20153;-59
2023/04/12 09:27:05;;;;;;;69.88;10.13;;;;;;;3.22;62.34;98824.25;4910802;28;20065;-59
2023/04/12 09:29:36;;;;;;;77.88;9.75;;;;;;;3.12;62.73;98822.63;4906777;28;20049;-59
2023/04/12 09:32:09;;;;;;;74.70;10.40;;;;;;;3.09;62.84;98827.81;4914252;28;20107;-57
2023/04/12 09:34:55;;;;;;;75.35;9.30;;;;;;;3.08;62.72;98836.44;4909784;28;20060;-60
2023/04/12 09:37:30;;;;;;;87.28;9.10;;;;;;;3.00;63.64;98824.47;4899300;28;20375;-59
2023/04/12 09:40:03;;;;;;;65.00;9.48;;;;;;;3.00;63.06;98824.47;4899470;28;20060;-60
2023/04/12 09:42:35;;;;;;;79.93;9.73;;;;;;;3.01;63.41;98833.91;4909511;28;20064;-58
2023/04/12 09:45:21;;;;;;;81.38;9.48;;;;;;;2.99;63.50;98832.19;4909396;28;20046;-59
2023/04/12 09:47:51;;;;;;;82.22;10.90;;;;;;;2.93;63.90;98833.13;4898518;28;20056;-60
2023/04/12 09:50:27;;;;;;;77.75;11.90;;;;;;;2.94;63.86;98837.41;4909301;28;20055;-59
2023/04/12 09:53:05;;;;;;;77.72;11.55;;;;;;;2.92;64.08;98852.06;4899587;28;21659;-59
2023/04/12 09:55:38;;;;;;;85.97;11.43;;;;;;;2.90;64.69;98853.78;4909404;28;20272;-59
2023/04/12 09:58:10;;;;;;;84.47;9.77;;;;;;;2.88;64.50;98850.34;4899094;28;20113;-60
2023/04/12 10:00:43;;;;;;;69.50;10.05;;;;;;;2.85;64.84;98855.56;4909169;28;20453;-59
2023/04/12 10:03:16;;;;;;;80.30;9.63;;;;;;;2.76;64.85;98855.63;4908846;28;20048;-60
2023/04/12 10:05:47;;;;;;;98.50;10.13;;;;;;;2.81;64.96;98875.34;4900960;28;20056;-59
2023/04/12 10:08:20;;;;;;;97.43;11.50;;;;;;;2.84;65.17;98884.78;4909211;28;20048;-59
2023/04/12 10:10:52;;;;;;;79.45;10.82;;;;;;;2.73;65.51;98878.84;4908302;28;20135;-59
2023/04/12 10:13:28;;;;;;;85.47;11.15;;;;;;;2.56;65.80;98854.03;4907909;28;20052;-59
2023/04/12 10:16:01;;;;;;;84.22;10.52;;;;;;;2.84;65.38;98899.41;4898960;28;20056;-59
2023/04/12 10:18:32;;;;;;;81.07;11.13;;;;;;;2.77;65.64;98893.44;4909162;28;20132;-60
2023/04/12 10:21:06;;;;;;;79.88;10.88;;;;;;;2.41;65.75;98837.81;4908179;28;20052;-58
2023/04/12 10:23:44;;;;;;;80.85;10.02;;;;;;;2.86;65.44;98911.44;4897666;28;20055;-59
2023/04/12 10:26:17;;;;;;;86.35;10.43;;;;;;;2.84;65.30;98910.56;4909154;28;20052;-59
2023/04/12 10:29:27;;;;;;;70.35;10.20;;;;;;;2.80;65.86;98904.59;4898923;28;20083;-59
2023/04/12 10:32:18;;;;;;;86.35;11.35;;;;;;;2.77;66.06;98908.91;4899716;28;20394;-58
2023/04/12 10:34:53;;;;;;;90.65;12.02;;;;;;;2.78;65.75;98915.78;4897840;28;20088;-59
2023/04/12 10:38:00;;;;;;;93.50;12.20;;;;;;;2.81;65.83;98920.94;4908607;28;20059;-59
2023/04/12 10:40:34;;;;;;;92.78;12.73;;;;;;;2.85;65.43;98921.78;4898128;28;20060;-59
2023/04/12 10:43:26;;;;;;;83.75;9.43;;;;;;;2.81;65.54;98916.63;4907666;28;20064;-59
2023/04/12 10:46:02;;;;;;;89.22;10.85;;;;;;;2.77;65.51;98916.63;4884285;28;20053;-60
2023/04/12 10:48:34;;;;;;;84.78;9.85;;;;;;;2.84;65.98;98920.91;4908269;28;20118;-59
2023/04/12 10:51:22;;;;;;;119.38;14.60;;;;;;;2.88;65.70;98916.59;4907948;28;20056;-59
2023/04/12 10:53:56;;;;;;;92.10;10.90;;;;;;;2.85;65.74;98911.47;4898060;28;20048;-59
2023/04/12 10:56:41;;;;;;;81.43;12.55;;;;;;;2.81;65.93;98910.59;4898856;28;20048;-59
2023/04/12 10:59:12;;;;;;;80.60;11.38;;;;;;;2.81;65.85;98911.47;4897078;28;20044;-59
2023/04/12 11:02:10;;;;;;;92.63;11.68;;;;;;;2.88;66.06;98917.44;4908161;28;20048;-59
2023/04/12 11:05:09;;;;;;;95.35;10.98;;;;;;;2.84;65.89;98915.75;4898328;28;21368;-59
2023/04/12 11:07:46;;;;;;;90.50;12.10;;;;;;;2.75;66.62;98921.81;4887616;28;20064;-58
2023/04/12 11:10:20;;;;;;;100.20;12.32;;;;;;;2.75;66.86;98931.28;4900368;28;20064;-59
2023/04/12 11:12:56;;;;;;;82.88;12.27;;;;;;;2.71;67.21;98934.75;4905625;28;20052;-59
2023/04/12 11:15:28;;;;;;;95.95;12.55;;;;;;;2.51;66.72;98894.44;4904869;28;20448;-59
2023/04/12 11:17:59;;;;;;;86.22;12.00;;;;;;;2.72;67.08;98939.91;4908432;28;20495;-58
2023/04/12 11:20:37;;;;;;;90.15;11.68;;;;;;;2.50;67.12;98910.81;4908693;28;20048;-59
2023/04/12 11:23:15;;;;;;;102.45;10.90;;;;;;;2.60;67.33;98916.78;4900319;28;20049;-59
2023/04/12 11:25:53;;;;;;;81.75;10.88;;;;;;;2.48;67.49;98901.38;4900575;28;20102;-59
2023/04/12 11:28:26;;;;;;;80.30;11.27;;;;;;;2.77;67.58;98950.19;4911357;28;20059;-60
2023/04/12 11:31:01;;;;;;;86.35;12.25;;;;;;;2.82;67.45;98958.75;4902442;28;20432;-59
2023/04/12 11:33:36;;;;;;;96.65;11.43;;;;;;;2.86;67.60;98954.44;4912077;28;20059;-59
2023/04/12 11:36:13;;;;;;;87.93;13.15;;;;;;;2.72;67.70;98941.59;4905808;28;20814;-59
2023/04/12 11:38:44;;;;;;;88.38;12.30;;;;;;;2.82;67.51;98958.75;4912199;28;20060;-59
2023/04/12 11:41:20;;;;;;;96.50;11.02;;;;;;;2.74;67.95;98945.88;4904297;28;20068;-59
2023/04/12 11:43:53;;;;;;;90.07;11.50;;;;;;;2.83;67.89;98960.47;4911427;28;20064;-59
2023/04/12 11:46:27;;;;;;;95.70;11.77;;;;;;;2.82;67.88;98961.31;4911371;28;20231;-59
2023/04/12 11:49:00;;;;;;;79.43;10.43;;;;;;;2.75;68.06;98954.50;4903330;28;20115;-59
2023/04/12 11:51:40;;;;;;;88.78;10.20;;;;;;;2.24;68.28;98867.09;4906945;28;20049;-58
2023/04/12 11:54:11;;;;;;;70.57;8.75;;;;;;;2.70;68.68;98948.53;4911732;28;20059;-59
2023/04/12 11:56:44;;;;;;;83.53;10.77;;;;;;;2.74;68.61;98955.34;4911868;28;20806;-59
2023/04/12 11:59:17;;;;;;;93.10;10.93;;;;;;;2.72;68.54;98951.94;4911993;28;20056;-59